sensor_id;sensor_type;location;lat;lon;timestamp;P1;durP1;ratioP1;P2;durP2;ratioP2
1414;SDS011;702;49.466;11.086;2023-12-04T00:01:25;26.95;;;16.60;;
1414;SDS011;702;49.466;11.086;2023-12-04T00:03:54;26.58;;;15.52;;
1414;SDS011;702;49.466;11.086;2023-12-04T00:06:23;29.92;;;16.98;;
1414;SDS011;702;49.466;11.086;2023-12-04T00:08:50;31.65;;;17.58;;
1414;SDS011;702;49.466;11.086;2023-12-04T00:11:17;23.80;;;15.40;;
1414;SDS011;702;49.466;11.086;2023-12-04T00:13:45;31.77;;;16.05;;
1414;SDS011;702;49.466;11.086;2023-12-04T00:16:12;26.92;;;15.45;;
1414;SDS011;702;49.466;11.086;2023-12-04T00:18:41;23.90;;;16.55;;
1414;SDS011;702;49.466;11.086;2023-12-04T00:21:08;32.90;;;14.80;;
1414;SDS011;702;49.466;11.086;2023-12-04T00:23:35;29.25;;;17.00;;
1414;SDS011;702;49.466;11.086;2023-12-04T00:26:03;24.05;;;15.60;;
1414;SDS011;702;49.466;11.086;2023-12-04T00:28:30;28.53;;;15.80;;
1414;SDS011;702;49.466;11.086;2023-12-04T00:30:58;30.08;;;16.88;;
1414;SDS011;702;49.466;11.086;2023-12-04T00:33:25;26.70;;;15.85;;
1414;SDS011;702;49.466;11.086;2023-12-04T00:35:53;25.73;;;15.57;;
1414;SDS011;702;49.466;11.086;2023-12-04T00:38:20;27.30;;;18.02;;
1414;SDS011;702;49.466;11.086;2023-12-04T00:40:47;26.75;;;16.42;;
1414;SDS011;702;49.466;11.086;2023-12-04T00:43:15;24.65;;;15.30;;
1414;SDS011;702;49.466;11.086;2023-12-04T00:45:42;28.00;;;16.30;;
1414;SDS011;702;49.466;11.086;2023-12-04T00:48:09;24.30;;;14.50;;
1414;SDS011;702;49.466;11.086;2023-12-04T00:50:37;25.00;;;15.67;;
1414;SDS011;702;49.466;11.086;2023-12-04T00:53:05;27.13;;;15.10;;
1414;SDS011;702;49.466;11.086;2023-12-04T00:55:32;24.43;;;14.77;;
1414;SDS011;702;49.466;11.086;2023-12-04T00:57:59;26.55;;;14.75;;
1414;SDS011;702;49.466;11.086;2023-12-04T01:00:27;26.52;;;15.38;;
1414;SDS011;702;49.466;11.086;2023-12-04T01:02:54;24.17;;;14.13;;
1414;SDS011;702;49.466;11.086;2023-12-04T01:05:21;25.83;;;15.43;;
1414;SDS011;702;49.466;11.086;2023-12-04T01:07:49;25.50;;;13.77;;
1414;SDS011;702;49.466;11.086;2023-12-04T01:10:17;28.65;;;17.63;;
1414;SDS011;702;49.466;11.086;2023-12-04T01:12:45;27.73;;;15.30;;
1414;SDS011;702;49.466;11.086;2023-12-04T01:15:12;27.55;;;16.17;;
1414;SDS011;702;49.466;11.086;2023-12-04T01:17:39;28.13;;;15.18;;
1414;SDS011;702;49.466;11.086;2023-12-04T01:20:07;25.77;;;15.10;;
1414;SDS011;702;49.466;11.086;2023-12-04T01:22:36;26.27;;;15.50;;
1414;SDS011;702;49.466;11.086;2023-12-04T01:25:03;26.43;;;15.23;;
1414;SDS011;702;49.466;11.086;2023-12-04T01:27:33;28.05;;;15.60;;
1414;SDS011;702;49.466;11.086;2023-12-04T01:30:00;26.70;;;15.15;;
1414;SDS011;702;49.466;11.086;2023-12-04T01:32:28;30.03;;;17.00;;
1414;SDS011;702;49.466;11.086;2023-12-04T01:34:56;21.60;;;12.00;;
1414;SDS011;702;49.466;11.086;2023-12-04T01:37:23;25.80;;;15.57;;
1414;SDS011;702;49.466;11.086;2023-12-04T01:39:50;26.80;;;16.00;;
1414;SDS011;702;49.466;11.086;2023-12-04T01:42:17;27.40;;;14.55;;
1414;SDS011;702;49.466;11.086;2023-12-04T01:44:46;25.77;;;15.30;;
1414;SDS011;702;49.466;11.086;2023-12-04T01:47:13;31.20;;;17.75;;
1414;SDS011;702;49.466;11.086;2023-12-04T01:49:41;24.40;;;15.07;;
1414;SDS011;702;49.466;11.086;2023-12-04T01:52:09;25.25;;;15.07;;
1414;SDS011;702;49.466;11.086;2023-12-04T01:54:37;30.48;;;15.45;;
1414;SDS011;702;49.466;11.086;2023-12-04T01:57:04;31.92;;;16.70;;
1414;SDS011;702;49.466;11.086;2023-12-04T01:59:33;28.20;;;15.10;;
1414;SDS011;702;49.466;11.086;2023-12-04T02:02:02;26.80;;;14.95;;
1414;SDS011;702;49.466;11.086;2023-12-04T02:04:30;26.80;;;15.82;;
1414;SDS011;702;49.466;11.086;2023-12-04T02:06:58;24.90;;;14.10;;
1414;SDS011;702;49.466;11.086;2023-12-04T02:09:26;21.42;;;15.25;;
1414;SDS011;702;49.466;11.086;2023-12-04T02:11:54;26.95;;;16.23;;
1414;SDS011;702;49.466;11.086;2023-12-04T02:14:23;29.80;;;16.02;;
1414;SDS011;702;49.466;11.086;2023-12-04T02:16:50;25.27;;;15.65;;
1414;SDS011;702;49.466;11.086;2023-12-04T02:19:22;26.20;;;14.60;;
1414;SDS011;702;49.466;11.086;2023-12-04T02:21:50;31.70;;;16.38;;
1414;SDS011;702;49.466;11.086;2023-12-04T02:24:19;24.17;;;15.60;;
1414;SDS011;702;49.466;11.086;2023-12-04T02:26:47;26.03;;;16.00;;
1414;SDS011;702;49.466;11.086;2023-12-04T02:29:20;26.98;;;14.05;;
1414;SDS011;702;49.466;11.086;2023-12-04T02:31:53;21.52;;;12.82;;
1414;SDS011;702;49.466;11.086;2023-12-04T02:34:22;25.42;;;15.38;;
1414;SDS011;702;49.466;11.086;2023-12-04T02:36:50;25.80;;;14.18;;
1414;SDS011;702;49.466;11.086;2023-12-04T02:39:20;21.52;;;14.70;;
1414;SDS011;702;49.466;11.086;2023-12-04T02:41:48;23.10;;;13.18;;
1414;SDS011;702;49.466;11.086;2023-12-04T02:44:15;28.85;;;14.55;;
1414;SDS011;702;49.466;11.086;2023-12-04T02:46:43;27.80;;;15.27;;
1414;SDS011;702;49.466;11.086;2023-12-04T02:49:10;26.92;;;15.05;;
1414;SDS011;702;49.466;11.086;2023-12-04T02:51:39;26.65;;;16.88;;
1414;SDS011;702;49.466;11.086;2023-12-04T02:54:07;27.48;;;15.75;;
1414;SDS011;702;49.466;11.086;2023-12-04T02:56:36;27.70;;;14.82;;
1414;SDS011;702;49.466;11.086;2023-12-04T02:59:03;25.05;;;15.40;;
1414;SDS011;702;49.466;11.086;2023-12-04T03:01:31;26.58;;;14.82;;
1414;SDS011;702;49.466;11.086;2023-12-04T03:03:58;24.95;;;14.05;;
1414;SDS011;702;49.466;11.086;2023-12-04T03:06:25;20.50;;;14.40;;
1414;SDS011;702;49.466;11.086;2023-12-04T03:08:52;25.88;;;14.32;;
1414;SDS011;702;49.466;11.086;2023-12-04T03:11:20;27.80;;;14.88;;
1414;SDS011;702;49.466;11.086;2023-12-04T03:13:48;24.65;;;14.52;;
1414;SDS011;702;49.466;11.086;2023-12-04T03:16:16;27.80;;;16.48;;
1414;SDS011;702;49.466;11.086;2023-12-04T03:18:43;24.83;;;14.73;;
1414;SDS011;702;49.466;11.086;2023-12-04T03:21:11;25.30;;;14.75;;
1414;SDS011;702;49.466;11.086;2023-12-04T03:23:41;25.98;;;14.43;;
1414;SDS011;702;49.466;11.086;2023-12-04T03:26:08;25.45;;;15.25;;
1414;SDS011;702;49.466;11.086;2023-12-04T03:28:37;23.95;;;14.50;;
1414;SDS011;702;49.466;11.086;2023-12-04T03:31:06;25.10;;;15.55;;
1414;SDS011;702;49.466;11.086;2023-12-04T03:33:34;25.05;;;14.25;;
1414;SDS011;702;49.466;11.086;2023-12-04T03:36:01;25.52;;;14.38;;
1414;SDS011;702;49.466;11.086;2023-12-04T03:38:29;22.15;;;13.23;;
1414;SDS011;702;49.466;11.086;2023-12-04T03:40:56;26.00;;;14.65;;
1414;SDS011;702;49.466;11.086;2023-12-04T03:43:24;25.40;;;14.75;;
1414;SDS011;702;49.466;11.086;2023-12-04T03:45:51;28.10;;;15.45;;
1414;SDS011;702;49.466;11.086;2023-12-04T03:48:19;20.90;;;13.68;;
1414;SDS011;702;49.466;11.086;2023-12-04T03:50:47;24.30;;;14.30;;
1414;SDS011;702;49.466;11.086;2023-12-04T03:53:14;26.30;;;14.40;;
1414;SDS011;702;49.466;11.086;2023-12-04T03:55:41;24.55;;;14.10;;
1414;SDS011;702;49.466;11.086;2023-12-04T03:58:09;26.60;;;13.93;;
1414;SDS011;702;49.466;11.086;2023-12-04T04:00:36;27.17;;;15.43;;
1414;SDS011;702;49.466;11.086;2023-12-04T04:03:06;22.63;;;14.03;;
1414;SDS011;702;49.466;11.086;2023-12-04T04:05:35;21.63;;;13.80;;
1414;SDS011;702;49.466;11.086;2023-12-04T04:08:02;26.38;;;13.63;;
1414;SDS011;702;49.466;11.086;2023-12-04T04:10:31;19.00;;;13.10;;
1414;SDS011;702;49.466;11.086;2023-12-04T04:12:58;23.23;;;14.85;;
1414;SDS011;702;49.466;11.086;2023-12-04T04:15:26;28.58;;;14.55;;
1414;SDS011;702;49.466;11.086;2023-12-04T04:17:53;23.17;;;14.25;;
1414;SDS011;702;49.466;11.086;2023-12-04T04:20:20;27.50;;;14.75;;
1414;SDS011;702;49.466;11.086;2023-12-04T04:22:49;25.17;;;14.63;;
1414;SDS011;702;49.466;11.086;2023-12-04T04:25:17;26.88;;;16.08;;
1414;SDS011;702;49.466;11.086;2023-12-04T04:27:44;25.60;;;13.68;;
1414;SDS011;702;49.466;11.086;2023-12-04T04:30:11;28.03;;;16.07;;
1414;SDS011;702;49.466;11.086;2023-12-04T04:32:39;26.60;;;14.15;;
1414;SDS011;702;49.466;11.086;2023-12-04T04:35:07;20.20;;;13.85;;
1414;SDS011;702;49.466;11.086;2023-12-04T04:37:35;22.88;;;13.63;;
1414;SDS011;702;49.466;11.086;2023-12-04T04:40:04;24.98;;;14.68;;
1414;SDS011;702;49.466;11.086;2023-12-04T04:42:33;27.38;;;14.10;;
1414;SDS011;702;49.466;11.086;2023-12-04T04:45:00;22.35;;;13.90;;
1414;SDS011;702;49.466;11.086;2023-12-04T04:47:27;25.50;;;14.60;;
1414;SDS011;702;49.466;11.086;2023-12-04T04:49:55;21.73;;;14.55;;
1414;SDS011;702;49.466;11.086;2023-12-04T04:52:22;23.45;;;13.57;;
1414;SDS011;702;49.466;11.086;2023-12-04T04:54:49;23.02;;;13.75;;
1414;SDS011;702;49.466;11.086;2023-12-04T04:57:17;23.25;;;13.85;;
1414;SDS011;702;49.466;11.086;2023-12-04T04:59:45;26.27;;;15.27;;
1414;SDS011;702;49.466;11.086;2023-12-04T05:02:12;21.80;;;14.63;;
1414;SDS011;702;49.466;11.086;2023-12-04T05:04:39;21.00;;;13.45;;
1414;SDS011;702;49.466;11.086;2023-12-04T05:07:06;16.77;;;12.90;;
1414;SDS011;702;49.466;11.086;2023-12-04T05:09:33;23.35;;;12.18;;
1414;SDS011;702;49.466;11.086;2023-12-04T05:12:01;21.67;;;11.90;;
1414;SDS011;702;49.466;11.086;2023-12-04T05:14:30;22.70;;;12.75;;
1414;SDS011;702;49.466;11.086;2023-12-04T05:16:57;25.13;;;14.52;;
1414;SDS011;702;49.466;11.086;2023-12-04T05:19:25;24.10;;;13.70;;
1414;SDS011;702;49.466;11.086;2023-12-04T05:21:52;25.77;;;13.55;;
1414;SDS011;702;49.466;11.086;2023-12-04T05:24:20;19.47;;;12.20;;
1414;SDS011;702;49.466;11.086;2023-12-04T05:26:47;20.33;;;12.23;;
1414;SDS011;702;49.466;11.086;2023-12-04T05:29:14;22.70;;;13.03;;
1414;SDS011;702;49.466;11.086;2023-12-04T05:31:43;20.90;;;13.20;;
1414;SDS011;702;49.466;11.086;2023-12-04T05:34:10;19.93;;;12.83;;
1414;SDS011;702;49.466;11.086;2023-12-04T05:36:37;24.13;;;12.63;;
1414;SDS011;702;49.466;11.086;2023-12-04T05:39:04;22.33;;;12.97;;
1414;SDS011;702;49.466;11.086;2023-12-04T05:41:32;19.27;;;12.85;;
1414;SDS011;702;49.466;11.086;2023-12-04T05:43:59;21.20;;;13.33;;
1414;SDS011;702;49.466;11.086;2023-12-04T05:46:26;21.80;;;12.40;;
1414;SDS011;702;49.466;11.086;2023-12-04T05:48:55;21.43;;;13.80;;
1414;SDS011;702;49.466;11.086;2023-12-04T05:51:24;19.80;;;12.25;;
1414;SDS011;702;49.466;11.086;2023-12-04T05:53:51;22.75;;;12.23;;
1414;SDS011;702;49.466;11.086;2023-12-04T05:56:18;22.00;;;13.63;;
1414;SDS011;702;49.466;11.086;2023-12-04T05:58:45;20.90;;;13.07;;
1414;SDS011;702;49.466;11.086;2023-12-04T06:01:13;23.42;;;13.80;;
1414;SDS011;702;49.466;11.086;2023-12-04T06:03:41;18.97;;;11.73;;
1414;SDS011;702;49.466;11.086;2023-12-04T06:06:10;21.03;;;13.10;;
1414;SDS011;702;49.466;11.086;2023-12-04T06:08:37;24.20;;;13.47;;
1414;SDS011;702;49.466;11.086;2023-12-04T06:11:04;22.57;;;12.87;;
1414;SDS011;702;49.466;11.086;2023-12-04T06:13:32;19.13;;;11.87;;
1414;SDS011;702;49.466;11.086;2023-12-04T06:15:59;20.83;;;12.85;;
1414;SDS011;702;49.466;11.086;2023-12-04T06:18:28;26.10;;;12.67;;
1414;SDS011;702;49.466;11.086;2023-12-04T06:20:55;18.30;;;11.87;;
1414;SDS011;702;49.466;11.086;2023-12-04T06:23:24;20.43;;;13.37;;
1414;SDS011;702;49.466;11.086;2023-12-04T06:25:52;20.60;;;12.57;;
1414;SDS011;702;49.466;11.086;2023-12-04T06:28:20;21.20;;;12.90;;
1414;SDS011;702;49.466;11.086;2023-12-04T06:30:48;19.63;;;11.07;;
1414;SDS011;702;49.466;11.086;2023-12-04T06:33:17;19.80;;;12.33;;
1414;SDS011;702;49.466;11.086;2023-12-04T06:35:46;21.83;;;11.07;;
1414;SDS011;702;49.466;11.086;2023-12-04T06:38:14;19.97;;;10.80;;
1414;SDS011;702;49.466;11.086;2023-12-04T06:40:44;20.17;;;11.77;;
1414;SDS011;702;49.466;11.086;2023-12-04T06:43:12;19.13;;;11.90;;
1414;SDS011;702;49.466;11.086;2023-12-04T06:45:41;20.67;;;12.75;;
1414;SDS011;702;49.466;11.086;2023-12-04T06:48:10;19.50;;;12.57;;
1414;SDS011;702;49.466;11.086;2023-12-04T06:50:39;16.57;;;11.77;;
1414;SDS011;702;49.466;11.086;2023-12-04T06:53:06;21.03;;;12.43;;
1414;SDS011;702;49.466;11.086;2023-12-04T06:55:34;22.40;;;12.07;;
1414;SDS011;702;49.466;11.086;2023-12-04T06:58:02;17.57;;;12.60;;
1414;SDS011;702;49.466;11.086;2023-12-04T07:00:30;16.30;;;11.20;;
1414;SDS011;702;49.466;11.086;2023-12-04T07:02:57;16.80;;;11.00;;
1414;SDS011;702;49.466;11.086;2023-12-04T07:05:24;20.43;;;10.60;;
1414;SDS011;702;49.466;11.086;2023-12-04T07:07:51;16.67;;;10.63;;
1414;SDS011;702;49.466;11.086;2023-12-04T07:10:18;20.43;;;12.33;;
1414;SDS011;702;49.466;11.086;2023-12-04T07:12:45;18.90;;;11.20;;
1414;SDS011;702;49.466;11.086;2023-12-04T07:15:14;21.50;;;10.10;;
1414;SDS011;702;49.466;11.086;2023-12-04T07:17:41;16.63;;;11.20;;
1414;SDS011;702;49.466;11.086;2023-12-04T07:20:08;22.10;;;11.97;;
1414;SDS011;702;49.466;11.086;2023-12-04T07:22:38;16.07;;;10.00;;
1414;SDS011;702;49.466;11.086;2023-12-04T07:25:05;17.73;;;11.00;;
1414;SDS011;702;49.466;11.086;2023-12-04T07:27:35;14.67;;;10.30;;
1414;SDS011;702;49.466;11.086;2023-12-04T07:30:03;18.90;;;12.47;;
1414;SDS011;702;49.466;11.086;2023-12-04T07:32:33;18.77;;;11.13;;
1414;SDS011;702;49.466;11.086;2023-12-04T07:35:01;18.73;;;11.30;;
1414;SDS011;702;49.466;11.086;2023-12-04T07:37:28;20.23;;;12.57;;
1414;SDS011;702;49.466;11.086;2023-12-04T07:39:57;21.08;;;12.07;;
1414;SDS011;702;49.466;11.086;2023-12-04T07:42:25;22.13;;;12.97;;
1414;SDS011;702;49.466;11.086;2023-12-04T07:44:52;16.50;;;11.20;;
1414;SDS011;702;49.466;11.086;2023-12-04T07:47:19;16.83;;;11.73;;
1414;SDS011;702;49.466;11.086;2023-12-04T07:49:46;18.30;;;12.27;;
1414;SDS011;702;49.466;11.086;2023-12-04T07:52:13;17.87;;;11.37;;
1414;SDS011;702;49.466;11.086;2023-12-04T07:54:41;16.90;;;11.97;;
1414;SDS011;702;49.466;11.086;2023-12-04T07:57:08;16.67;;;10.48;;
1414;SDS011;702;49.466;11.086;2023-12-04T07:59:36;14.87;;;10.77;;
1414;SDS011;702;49.466;11.086;2023-12-04T08:02:03;14.87;;;9.80;;
1414;SDS011;702;49.466;11.086;2023-12-04T08:04:30;13.97;;;10.07;;
1414;SDS011;702;49.466;11.086;2023-12-04T08:06:59;18.47;;;11.47;;
1414;SDS011;702;49.466;11.086;2023-12-04T08:09:26;17.87;;;11.47;;
1414;SDS011;702;49.466;11.086;2023-12-04T08:11:53;15.27;;;10.53;;
1414;SDS011;702;49.466;11.086;2023-12-04T08:14:21;16.00;;;11.80;;
1414;SDS011;702;49.466;11.086;2023-12-04T08:16:48;16.77;;;10.40;;
1414;SDS011;702;49.466;11.086;2023-12-04T08:19:15;16.27;;;11.37;;
1414;SDS011;702;49.466;11.086;2023-12-04T08:21:43;17.97;;;10.60;;
1414;SDS011;702;49.466;11.086;2023-12-04T08:24:11;18.20;;;10.73;;
1414;SDS011;702;49.466;11.086;2023-12-04T08:26:38;14.20;;;9.87;;
1414;SDS011;702;49.466;11.086;2023-12-04T08:29:06;16.73;;;11.03;;
1414;SDS011;702;49.466;11.086;2023-12-04T08:31:33;17.33;;;10.73;;
1414;SDS011;702;49.466;11.086;2023-12-04T08:34:00;14.10;;;10.60;;
1414;SDS011;702;49.466;11.086;2023-12-04T08:36:28;17.73;;;11.32;;
1414;SDS011;702;49.466;11.086;2023-12-04T08:38:55;16.00;;;10.43;;
1414;SDS011;702;49.466;11.086;2023-12-04T08:41:24;15.87;;;11.00;;
1414;SDS011;702;49.466;11.086;2023-12-04T08:43:53;18.08;;;11.40;;
1414;SDS011;702;49.466;11.086;2023-12-04T08:46:21;15.93;;;10.07;;
1414;SDS011;702;49.466;11.086;2023-12-04T08:48:48;14.33;;;10.17;;
1414;SDS011;702;49.466;11.086;2023-12-04T08:51:15;14.27;;;9.30;;
1414;SDS011;702;49.466;11.086;2023-12-04T08:53:42;15.57;;;10.00;;
1414;SDS011;702;49.466;11.086;2023-12-04T08:56:10;16.80;;;11.10;;
1414;SDS011;702;49.466;11.086;2023-12-04T08:58:39;14.00;;;9.70;;
1414;SDS011;702;49.466;11.086;2023-12-04T09:01:06;15.47;;;10.37;;
1414;SDS011;702;49.466;11.086;2023-12-04T09:03:33;15.40;;;10.40;;
1414;SDS011;702;49.466;11.086;2023-12-04T09:06:00;16.00;;;10.57;;
1414;SDS011;702;49.466;11.086;2023-12-04T09:08:28;13.37;;;9.60;;
1414;SDS011;702;49.466;11.086;2023-12-04T09:10:55;15.73;;;11.13;;
1414;SDS011;702;49.466;11.086;2023-12-04T09:13:23;18.13;;;13.38;;
1414;SDS011;702;49.466;11.086;2023-12-04T09:15:52;15.47;;;11.40;;
1414;SDS011;702;49.466;11.086;2023-12-04T09:18:19;13.67;;;9.90;;
1414;SDS011;702;49.466;11.086;2023-12-04T09:20:47;17.23;;;10.93;;
1414;SDS011;702;49.466;11.086;2023-12-04T09:23:14;12.77;;;9.77;;
1414;SDS011;702;49.466;11.086;2023-12-04T09:25:42;13.57;;;9.70;;
1414;SDS011;702;49.466;11.086;2023-12-04T09:28:09;13.20;;;9.67;;
1414;SDS011;702;49.466;11.086;2023-12-04T09:30:36;16.00;;;10.80;;
1414;SDS011;702;49.466;11.086;2023-12-04T09:33:06;13.23;;;9.20;;
1414;SDS011;702;49.466;11.086;2023-12-04T09:35:33;13.57;;;10.77;;
1414;SDS011;702;49.466;11.086;2023-12-04T09:38:00;16.97;;;10.10;;
1414;SDS011;702;49.466;11.086;2023-12-04T09:40:27;13.97;;;9.70;;
1414;SDS011;702;49.466;11.086;2023-12-04T09:42:54;12.97;;;8.70;;
1414;SDS011;702;49.466;11.086;2023-12-04T09:45:22;10.83;;;7.60;;
1414;SDS011;702;49.466;11.086;2023-12-04T09:47:50;13.23;;;8.40;;
1414;SDS011;702;49.466;11.086;2023-12-04T09:50:19;12.03;;;8.50;;
1414;SDS011;702;49.466;11.086;2023-12-04T09:52:47;12.70;;;8.70;;
1414;SDS011;702;49.466;11.086;2023-12-04T09:55:15;12.27;;;8.50;;
1414;SDS011;702;49.466;11.086;2023-12-04T09:57:44;9.97;;;7.10;;
1414;SDS011;702;49.466;11.086;2023-12-04T10:00:12;11.63;;;7.97;;
1414;SDS011;702;49.466;11.086;2023-12-04T10:02:40;12.57;;;7.83;;
1414;SDS011;702;49.466;11.086;2023-12-04T10:05:08;14.37;;;8.70;;
1414;SDS011;702;49.466;11.086;2023-12-04T10:07:37;9.63;;;7.43;;
1414;SDS011;702;49.466;11.086;2023-12-04T10:10:05;8.13;;;6.10;;
1414;SDS011;702;49.466;11.086;2023-12-04T10:12:35;9.70;;;7.17;;
1414;SDS011;702;49.466;11.086;2023-12-04T10:15:04;10.30;;;6.83;;
1414;SDS011;702;49.466;11.086;2023-12-04T10:17:33;8.63;;;6.00;;
1414;SDS011;702;49.466;11.086;2023-12-04T10:20:06;9.20;;;5.70;;
1414;SDS011;702;49.466;11.086;2023-12-04T10:22:53;8.63;;;6.20;;
1414;SDS011;702;49.466;11.086;2023-12-04T10:25:22;6.93;;;5.23;;
1414;SDS011;702;49.466;11.086;2023-12-04T10:27:52;9.50;;;6.47;;
1414;SDS011;702;49.466;11.086;2023-12-04T10:30:24;8.73;;;5.77;;
1414;SDS011;702;49.466;11.086;2023-12-04T10:32:56;5.80;;;5.00;;
1414;SDS011;702;49.466;11.086;2023-12-04T10:35:28;7.47;;;5.60;;
1414;SDS011;702;49.466;11.086;2023-12-04T10:37:58;8.03;;;6.50;;
1414;SDS011;702;49.466;11.086;2023-12-04T10:40:28;9.97;;;5.27;;
1414;SDS011;702;49.466;11.086;2023-12-04T10:45:47;7.37;;;6.20;;
1414;SDS011;702;49.466;11.086;2023-12-04T10:48:16;6.57;;;4.60;;
1414;SDS011;702;49.466;11.086;2023-12-04T10:50:45;6.60;;;4.57;;
1414;SDS011;702;49.466;11.086;2023-12-04T10:53:15;6.17;;;5.50;;
1414;SDS011;702;49.466;11.086;2023-12-04T10:55:43;8.47;;;5.20;;
1414;SDS011;702;49.466;11.086;2023-12-04T10:58:12;6.40;;;4.73;;
1414;SDS011;702;49.466;11.086;2023-12-04T11:00:42;5.50;;;4.30;;
1414;SDS011;702;49.466;11.086;2023-12-04T11:03:12;6.83;;;4.97;;
1414;SDS011;702;49.466;11.086;2023-12-04T11:05:49;6.30;;;4.30;;
1414;SDS011;702;49.466;11.086;2023-12-04T11:08:23;6.90;;;4.90;;
1414;SDS011;702;49.466;11.086;2023-12-04T11:10:55;9.67;;;5.27;;
1414;SDS011;702;49.466;11.086;2023-12-04T11:13:26;6.43;;;4.53;;
1414;SDS011;702;49.466;11.086;2023-12-04T11:15:56;6.70;;;5.03;;
1414;SDS011;702;49.466;11.086;2023-12-04T11:18:30;9.00;;;4.50;;
1414;SDS011;702;49.466;11.086;2023-12-04T11:21:04;6.40;;;4.93;;
1414;SDS011;702;49.466;11.086;2023-12-04T11:23:36;7.33;;;5.03;;
1414;SDS011;702;49.466;11.086;2023-12-04T11:26:05;5.13;;;4.30;;
1414;SDS011;702;49.466;11.086;2023-12-04T11:28:34;11.63;;;5.47;;
1414;SDS011;702;49.466;11.086;2023-12-04T11:31:03;8.60;;;5.67;;
1414;SDS011;702;49.466;11.086;2023-12-04T11:33:34;8.47;;;5.07;;
1414;SDS011;702;49.466;11.086;2023-12-04T11:36:06;5.07;;;4.57;;
1414;SDS011;702;49.466;11.086;2023-12-04T11:38:36;6.90;;;4.20;;
1414;SDS011;702;49.466;11.086;2023-12-04T11:41:14;7.37;;;5.10;;
1414;SDS011;702;49.466;11.086;2023-12-04T11:43:42;7.83;;;5.10;;
1414;SDS011;702;49.466;11.086;2023-12-04T11:46:11;7.00;;;5.20;;
1414;SDS011;702;49.466;11.086;2023-12-04T11:48:38;7.50;;;5.73;;
1414;SDS011;702;49.466;11.086;2023-12-04T11:51:06;8.87;;;5.13;;
1414;SDS011;702;49.466;11.086;2023-12-04T11:53:38;6.43;;;4.83;;
1414;SDS011;702;49.466;11.086;2023-12-04T11:56:09;7.33;;;5.80;;
1414;SDS011;702;49.466;11.086;2023-12-04T11:58:41;5.37;;;4.27;;
1414;SDS011;702;49.466;11.086;2023-12-04T12:01:09;6.93;;;4.73;;
1414;SDS011;702;49.466;11.086;2023-12-04T12:03:36;9.27;;;4.77;;
1414;SDS011;702;49.466;11.086;2023-12-04T12:06:05;8.13;;;5.40;;
1414;SDS011;702;49.466;11.086;2023-12-04T12:08:33;7.63;;;4.63;;
1414;SDS011;702;49.466;11.086;2023-12-04T12:11:02;7.03;;;5.03;;
1414;SDS011;702;49.466;11.086;2023-12-04T12:13:30;8.67;;;5.43;;
1414;SDS011;702;49.466;11.086;2023-12-04T12:15:58;6.83;;;5.27;;
1414;SDS011;702;49.466;11.086;2023-12-04T12:18:27;10.03;;;5.50;;
1414;SDS011;702;49.466;11.086;2023-12-04T12:20:56;9.70;;;6.60;;
1414;SDS011;702;49.466;11.086;2023-12-04T12:23:25;7.50;;;5.10;;
1414;SDS011;702;49.466;11.086;2023-12-04T12:25:54;6.30;;;4.77;;
1414;SDS011;702;49.466;11.086;2023-12-04T12:28:23;11.27;;;5.40;;
1414;SDS011;702;49.466;11.086;2023-12-04T12:30:50;8.07;;;5.37;;
1414;SDS011;702;49.466;11.086;2023-12-04T12:33:19;6.30;;;4.80;;
1414;SDS011;702;49.466;11.086;2023-12-04T12:35:48;9.63;;;5.80;;
1414;SDS011;702;49.466;11.086;2023-12-04T12:38:15;7.73;;;5.80;;
1414;SDS011;702;49.466;11.086;2023-12-04T12:40:43;8.23;;;6.37;;
1414;SDS011;702;49.466;11.086;2023-12-04T12:43:11;7.80;;;5.57;;
1414;SDS011;702;49.466;11.086;2023-12-04T12:45:40;6.27;;;4.90;;
1414;SDS011;702;49.466;11.086;2023-12-04T12:48:10;8.10;;;5.20;;
1414;SDS011;702;49.466;11.086;2023-12-04T12:50:38;8.87;;;5.87;;
1414;SDS011;702;49.466;11.086;2023-12-04T12:53:05;7.60;;;5.83;;
1414;SDS011;702;49.466;11.086;2023-12-04T12:55:33;7.50;;;5.10;;
1414;SDS011;702;49.466;11.086;2023-12-04T12:58:00;6.57;;;4.90;;
1414;SDS011;702;49.466;11.086;2023-12-04T13:00:31;7.10;;;4.70;;
1414;SDS011;702;49.466;11.086;2023-12-04T13:03:01;6.30;;;5.00;;
1414;SDS011;702;49.466;11.086;2023-12-04T13:05:29;7.30;;;5.10;;
1414;SDS011;702;49.466;11.086;2023-12-04T13:07:56;6.67;;;5.53;;
1414;SDS011;702;49.466;11.086;2023-12-04T13:10:23;6.47;;;5.63;;
1414;SDS011;702;49.466;11.086;2023-12-04T13:12:51;7.93;;;4.87;;
1414;SDS011;702;49.466;11.086;2023-12-04T13:15:20;6.97;;;4.60;;
1414;SDS011;702;49.466;11.086;2023-12-04T13:17:48;7.13;;;5.20;;
1414;SDS011;702;49.466;11.086;2023-12-04T13:20:17;6.63;;;5.47;;
1414;SDS011;702;49.466;11.086;2023-12-04T13:22:44;6.60;;;5.00;;
1414;SDS011;702;49.466;11.086;2023-12-04T13:25:12;6.90;;;4.37;;
1414;SDS011;702;49.466;11.086;2023-12-04T13:27:39;7.73;;;5.87;;
1414;SDS011;702;49.466;11.086;2023-12-04T13:30:07;6.40;;;5.47;;
1414;SDS011;702;49.466;11.086;2023-12-04T13:32:35;7.57;;;5.50;;
1414;SDS011;702;49.466;11.086;2023-12-04T13:35:03;8.10;;;5.37;;
1414;SDS011;702;49.466;11.086;2023-12-04T13:37:34;9.80;;;5.27;;
1414;SDS011;702;49.466;11.086;2023-12-04T13:40:04;8.23;;;5.23;;
1414;SDS011;702;49.466;11.086;2023-12-04T13:42:33;9.93;;;5.30;;
1414;SDS011;702;49.466;11.086;2023-12-04T13:45:18;7.93;;;5.00;;
1414;SDS011;702;49.466;11.086;2023-12-04T13:47:47;11.27;;;5.90;;
1414;SDS011;702;49.466;11.086;2023-12-04T13:50:14;7.53;;;5.60;;
1414;SDS011;702;49.466;11.086;2023-12-04T13:52:44;7.70;;;5.33;;
1414;SDS011;702;49.466;11.086;2023-12-04T13:55:20;6.30;;;4.90;;
1414;SDS011;702;49.466;11.086;2023-12-04T13:58:02;8.00;;;5.63;;
1414;SDS011;702;49.466;11.086;2023-12-04T14:00:36;5.60;;;4.90;;
1414;SDS011;702;49.466;11.086;2023-12-04T14:03:05;8.30;;;5.70;;
1414;SDS011;702;49.466;11.086;2023-12-04T14:05:32;7.63;;;5.80;;
1414;SDS011;702;49.466;11.086;2023-12-04T14:08:02;7.10;;;5.33;;
1414;SDS011;702;49.466;11.086;2023-12-04T14:10:29;6.47;;;5.43;;
1414;SDS011;702;49.466;11.086;2023-12-04T14:12:56;20.43;;;6.83;;
1414;SDS011;702;49.466;11.086;2023-12-04T14:15:24;9.67;;;5.30;;
1414;SDS011;702;49.466;11.086;2023-12-04T14:17:51;6.73;;;4.87;;
1414;SDS011;702;49.466;11.086;2023-12-04T14:20:18;9.20;;;6.53;;
1414;SDS011;702;49.466;11.086;2023-12-04T14:22:47;8.10;;;5.80;;
1414;SDS011;702;49.466;11.086;2023-12-04T14:25:16;9.57;;;6.00;;
1414;SDS011;702;49.466;11.086;2023-12-04T14:27:43;8.27;;;4.90;;
1414;SDS011;702;49.466;11.086;2023-12-04T14:30:11;7.90;;;5.50;;
1414;SDS011;702;49.466;11.086;2023-12-04T14:32:39;12.67;;;6.60;;
1414;SDS011;702;49.466;11.086;2023-12-04T14:35:08;9.27;;;5.93;;
1414;SDS011;702;49.466;11.086;2023-12-04T14:37:36;8.10;;;5.87;;
1414;SDS011;702;49.466;11.086;2023-12-04T14:40:04;7.47;;;5.47;;
1414;SDS011;702;49.466;11.086;2023-12-04T14:42:34;6.60;;;5.27;;
1414;SDS011;702;49.466;11.086;2023-12-04T14:45:02;6.40;;;4.90;;
1414;SDS011;702;49.466;11.086;2023-12-04T14:47:30;7.80;;;5.40;;
1414;SDS011;702;49.466;11.086;2023-12-04T14:49:57;6.80;;;5.13;;
1414;SDS011;702;49.466;11.086;2023-12-04T14:52:25;10.67;;;6.20;;
1414;SDS011;702;49.466;11.086;2023-12-04T14:54:53;8.13;;;5.40;;
1414;SDS011;702;49.466;11.086;2023-12-04T14:57:47;8.13;;;5.53;;
1414;SDS011;702;49.466;11.086;2023-12-04T15:00:37;8.50;;;6.00;;
1414;SDS011;702;49.466;11.086;2023-12-04T15:03:40;8.27;;;5.33;;
1414;SDS011;702;49.466;11.086;2023-12-04T15:06:36;7.67;;;6.00;;
1414;SDS011;702;49.466;11.086;2023-12-04T15:09:29;9.80;;;6.23;;